createdAt,value
2023-04-19T00:00:24.108Z,10.70
2023-04-19T00:02:52.219Z,10.70
2023-04-19T00:05:22.250Z,10.70
2023-04-19T00:07:50.341Z,10.70
2023-04-19T00:10:18.591Z,10.70
2023-04-19T00:12:48.005Z,10.70
2023-04-19T00:15:15.900Z,10.70
2023-04-19T00:17:43.903Z,10.70
2023-04-19T00:20:13.030Z,10.70
2023-04-19T00:22:41.030Z,10.70
2023-04-19T00:25:09.560Z,10.70
2023-04-19T00:27:37.508Z,10.70
2023-04-19T00:30:08.124Z,10.80
2023-04-19T00:32:36.166Z,10.80
2023-04-19T00:35:04.510Z,10.80
2023-04-19T00:37:32.614Z,10.70
2023-04-19T00:40:00.579Z,10.80
2023-04-19T00:42:28.645Z,10.70
2023-04-19T00:44:56.555Z,10.70
2023-04-19T00:47:25.958Z,10.70
2023-04-19T00:49:53.957Z,10.70
2023-04-19T00:52:22.998Z,10.70
2023-04-19T00:54:50.982Z,10.70
2023-04-19T00:57:19.724Z,10.70
2023-04-19T00:59:47.790Z,10.70
2023-04-19T01:02:15.968Z,10.70
2023-04-19T01:04:45.730Z,10.80
2023-04-19T01:07:14.191Z,10.70
2023-04-19T01:09:44.021Z,10.70
2023-04-19T01:12:11.898Z,10.70
2023-04-19T01:14:40.894Z,10.70
2023-04-19T01:17:09.486Z,10.80
2023-04-19T01:19:38.546Z,10.70
2023-04-19T01:22:07.796Z,10.70
2023-04-19T01:24:37.141Z,10.70
2023-04-19T01:27:05.197Z,10.70
2023-04-19T01:29:35.658Z,10.80
2023-04-19T01:32:03.482Z,10.70
2023-04-19T01:34:31.368Z,10.70
2023-04-19T01:36:59.303Z,10.70
2023-04-19T01:39:27.473Z,10.70
2023-04-19T01:41:56.741Z,10.60
2023-04-19T01:44:32.897Z,10.60
2023-04-19T01:47:08.333Z,10.60
2023-04-19T01:49:48.126Z,10.50
2023-04-19T01:52:15.934Z,10.60
2023-04-19T01:54:43.949Z,10.60
2023-04-19T01:57:13.383Z,10.60
2023-04-19T01:59:41.268Z,10.50
2023-04-19T02:02:09.562Z,10.60
2023-04-19T02:04:38.082Z,10.60
2023-04-19T02:07:05.961Z,10.60
2023-04-19T02:09:36.625Z,10.60
2023-04-19T02:12:04.856Z,10.60
2023-04-19T02:14:34.126Z,10.50
2023-04-19T02:17:22.072Z,10.60
2023-04-19T02:19:53.934Z,10.50
2023-04-19T02:22:21.966Z,10.50
2023-04-19T02:24:51.584Z,10.50
2023-04-19T02:27:19.447Z,10.50
2023-04-19T02:29:48.624Z,10.40
2023-04-19T02:32:16.578Z,10.40
2023-04-19T02:34:44.372Z,10.50
2023-04-19T02:37:12.216Z,10.40
2023-04-19T02:39:41.717Z,10.50
2023-04-19T02:42:09.604Z,10.50
2023-04-19T02:44:37.673Z,10.40
2023-04-19T02:47:08.025Z,10.40
2023-04-19T02:49:36.837Z,10.50
2023-04-19T02:52:04.988Z,10.50
2023-04-19T02:54:33.828Z,10.50
2023-04-19T02:57:02.805Z,10.60
2023-04-19T02:59:30.645Z,10.60
2023-04-19T03:01:58.474Z,10.60
2023-04-19T03:04:28.919Z,10.60
2023-04-19T03:06:56.853Z,10.60
2023-04-19T03:09:24.655Z,10.50
2023-04-19T03:11:53.244Z,10.40
2023-04-19T03:14:21.059Z,10.40
2023-04-19T03:16:48.815Z,10.50
2023-04-19T03:19:16.680Z,10.40
2023-04-19T03:21:46.521Z,10.40
2023-04-19T03:24:29.007Z,10.50
2023-04-19T03:26:57.017Z,10.40
2023-04-19T03:29:24.966Z,10.40
2023-04-19T03:31:52.815Z,10.40
2023-04-19T03:34:20.694Z,10.50
2023-04-19T03:36:49.872Z,10.50
2023-04-19T03:39:17.809Z,10.50
2023-04-19T03:41:45.659Z,10.50
2023-04-19T03:44:13.758Z,10.60
2023-04-19T03:46:41.824Z,10.60
2023-04-19T03:49:09.781Z,10.60
2023-04-19T03:51:37.569Z,10.50
2023-04-19T03:54:06.905Z,10.50
2023-04-19T03:56:34.750Z,10.50
2023-04-19T03:59:03.741Z,10.40
2023-04-19T04:01:31.617Z,10.30
2023-04-19T04:04:01.037Z,10.20
2023-04-19T04:06:30.154Z,10.00
2023-04-19T04:08:57.971Z,9.90
2023-04-19T04:11:27.177Z,10.00
2023-04-19T04:13:55.921Z,10.00
2023-04-19T04:16:24.009Z,10.00
2023-04-19T04:18:52.280Z,10.00
2023-04-19T04:21:20.407Z,10.00
2023-04-19T04:23:49.811Z,10.10
2023-04-19T04:26:20.044Z,10.10
2023-04-19T04:28:49.197Z,10.20
2023-04-19T04:31:18.244Z,10.20
2023-04-19T04:33:46.795Z,10.20
2023-04-19T04:36:15.366Z,10.20
2023-04-19T04:38:43.304Z,10.20
2023-04-19T04:41:12.821Z,10.30
2023-04-19T04:43:40.854Z,10.30
2023-04-19T04:46:10.112Z,10.30
2023-04-19T04:48:37.995Z,10.40
2023-04-19T04:51:05.845Z,10.30
2023-04-19T04:53:33.657Z,10.30
2023-04-19T04:56:03.701Z,10.30
2023-04-19T04:58:31.512Z,10.30
2023-04-19T05:00:59.358Z,10.30
2023-04-19T05:03:28.704Z,10.30
2023-04-19T05:05:57.143Z,10.30
2023-04-19T05:08:26.698Z,10.30
2023-04-19T05:10:54.570Z,10.30
2023-04-19T05:13:22.380Z,10.30
2023-04-19T05:15:50.185Z,10.30
2023-04-19T05:18:18.053Z,10.30
2023-04-19T05:20:47.986Z,10.30
2023-04-19T05:23:15.830Z,10.30
2023-04-19T05:25:43.735Z,10.30
2023-04-19T05:28:11.592Z,10.30
2023-04-19T05:30:39.520Z,10.30
2023-04-19T05:33:07.423Z,10.30
2023-04-19T05:35:35.263Z,10.30
2023-04-19T05:38:04.366Z,10.40
2023-04-19T05:40:32.186Z,10.40
2023-04-19T05:43:00.038Z,10.40
2023-04-19T05:45:27.860Z,10.50
2023-04-19T05:47:56.233Z,10.50
2023-04-19T05:50:24.158Z,10.60
2023-04-19T05:52:51.980Z,10.60
2023-04-19T05:55:21.404Z,10.70
2023-04-19T05:57:49.211Z,10.70
2023-04-19T06:00:17.736Z,10.80
2023-04-19T06:02:46.068Z,10.80
2023-04-19T06:05:14.056Z,10.80
2023-04-19T06:07:47.161Z,10.90
2023-04-19T06:10:23.660Z,10.90
2023-04-19T06:13:01.310Z,10.90
2023-04-19T06:15:30.856Z,10.90
2023-04-19T06:17:59.940Z,10.90
2023-04-19T06:20:27.944Z,11.00
2023-04-19T06:22:55.985Z,11.20
2023-04-19T06:25:25.820Z,11.30
2023-04-19T06:27:53.602Z,11.30
2023-04-19T06:30:21.739Z,11.30
2023-04-19T06:32:49.620Z,11.40
2023-04-19T06:35:17.627Z,11.40
2023-04-19T06:37:45.420Z,11.40
2023-04-19T06:40:13.506Z,11.40
2023-04-19T06:42:42.614Z,11.30
2023-04-19T06:45:11.596Z,11.30
2023-04-19T06:47:39.448Z,11.20
2023-04-19T06:50:08.620Z,11.30
2023-04-19T06:52:36.508Z,11.30
2023-04-19T06:55:04.429Z,11.30
2023-04-19T06:57:32.268Z,11.30
2023-04-19T07:00:01.480Z,11.30
2023-04-19T07:02:29.362Z,11.20
2023-04-19T07:04:57.236Z,11.20
2023-04-19T07:07:25.067Z,11.20
2023-04-19T07:09:52.883Z,11.20
2023-04-19T07:12:20.731Z,11.20
2023-04-19T07:14:48.519Z,11.30
2023-04-19T07:17:18.670Z,11.30
2023-04-19T07:19:48.632Z,11.40
2023-04-19T07:22:16.474Z,11.40
2023-04-19T07:24:44.756Z,11.30
2023-04-19T07:27:14.424Z,11.30
2023-04-19T07:29:42.287Z,11.30
2023-04-19T07:32:10.405Z,11.30
2023-04-19T07:34:41.374Z,11.30
2023-04-19T07:37:09.369Z,11.40
2023-04-19T07:39:37.201Z,11.50
2023-04-19T07:42:05.035Z,11.70
2023-04-19T07:44:33.095Z,11.70
2023-04-19T07:47:00.966Z,11.70
2023-04-19T07:49:33.800Z,11.70
2023-04-19T07:52:03.181Z,11.80
2023-04-19T07:54:32.186Z,11.80
2023-04-19T07:57:00.011Z,11.90
2023-04-19T07:59:27.811Z,12.00
2023-04-19T08:01:55.876Z,12.00
2023-04-19T08:04:24.404Z,12.10
2023-04-19T08:06:52.967Z,12.20
2023-04-19T08:09:22.111Z,12.30
2023-04-19T08:11:49.955Z,12.30
2023-04-19T08:14:32.532Z,12.20
2023-04-19T08:17:23.675Z,12.20
2023-04-19T08:19:53.288Z,12.20
2023-04-19T08:22:21.580Z,12.30
2023-04-19T08:24:52.380Z,12.40
2023-04-19T08:27:21.088Z,12.50
2023-04-19T08:29:48.957Z,12.50
2023-04-19T08:32:16.820Z,12.70
2023-04-19T08:34:44.904Z,12.90
2023-04-19T08:37:12.729Z,13.00
2023-04-19T08:39:40.715Z,13.30
2023-04-19T08:42:24.682Z,13.40
2023-04-19T08:45:23.285Z,13.70
2023-04-19T08:47:58.740Z,13.80
2023-04-19T08:50:34.535Z,13.80
2023-04-19T08:55:59.088Z,14.00
2023-04-19T08:58:45.705Z,14.30
2023-04-19T09:01:33.910Z,14.60
2023-04-19T09:04:26.484Z,14.80
2023-04-19T09:06:53.754Z,15.00
2023-04-19T09:11:54.139Z,14.70
2023-04-19T09:14:23.874Z,14.50
2023-04-19T09:16:52.825Z,14.50
2023-04-19T09:19:24.716Z,14.50
2023-04-19T09:21:54.208Z,14.50
2023-04-19T09:25:18.608Z,14.70
2023-04-19T09:27:29.015Z,14.80
2023-04-19T09:29:59.216Z,15.00
2023-04-19T09:32:28.176Z,15.10
2023-04-19T09:34:57.692Z,15.20
2023-04-19T09:39:57.098Z,15.10
2023-04-19T09:42:47.392Z,15.10
2023-04-19T09:45:29.283Z,15.50
2023-04-19T09:48:07.397Z,15.60
2023-04-19T09:50:46.749Z,15.40
2023-04-19T09:53:22.534Z,15.50
2023-04-19T09:56:00.517Z,15.60
2023-04-19T09:58:38.281Z,15.80
2023-04-19T10:01:19.988Z,15.90
2023-04-19T10:03:50.375Z,16.00
2023-04-19T10:08:51.865Z,16.00
2023-04-19T10:11:21.673Z,16.10
2023-04-19T10:13:51.426Z,16.20
2023-04-19T10:16:20.897Z,16.00
2023-04-19T10:18:49.629Z,15.90
2023-04-19T10:21:17.775Z,15.80
2023-04-19T10:23:45.695Z,15.70
2023-04-19T10:26:13.496Z,15.90
2023-04-19T10:28:43.001Z,16.10
2023-04-19T10:31:13.968Z,16.30
2023-04-19T10:33:43.424Z,16.10
2023-04-19T10:36:15.551Z,15.80
2023-04-19T10:38:47.242Z,15.60
2023-04-19T10:41:17.421Z,15.50
2023-04-19T10:43:47.688Z,15.80
2023-04-19T10:46:17.587Z,15.60
2023-04-19T10:48:54.870Z,15.70
2023-04-19T10:51:28.769Z,15.70
2023-04-19T10:53:58.689Z,16.10
2023-04-19T10:57:02.114Z,16.00
2023-04-19T10:59:34.429Z,15.70
2023-04-19T11:02:03.939Z,15.60
2023-04-19T11:05:01.893Z,15.90
2023-04-19T11:07:29.827Z,16.20
2023-04-19T11:09:57.620Z,16.40
2023-04-19T11:12:25.460Z,16.60
2023-04-19T11:14:54.850Z,16.90
2023-04-19T11:17:25.874Z,16.90
2023-04-19T11:19:58.401Z,17.00
2023-04-19T11:22:32.179Z,17.00
2023-04-19T11:25:06.956Z,17.10
2023-04-19T11:27:35.332Z,17.10
2023-04-19T11:30:05.582Z,17.30
2023-04-19T11:32:33.955Z,17.40
2023-04-19T11:35:07.627Z,17.10
2023-04-19T11:37:38.327Z,17.20
2023-04-19T11:40:08.295Z,17.20
2023-04-19T11:42:36.780Z,17.30
2023-04-19T11:45:06.168Z,17.30
2023-04-19T11:47:37.059Z,17.30
2023-04-19T11:50:31.577Z,17.50
2023-04-19T11:53:00.832Z,17.70
2023-04-19T11:55:33.763Z,17.70
2023-04-19T11:58:01.696Z,17.50
2023-04-19T12:00:31.190Z,17.30
2023-04-19T12:03:00.517Z,17.50
2023-04-19T12:05:29.118Z,17.50
2023-04-19T12:08:06.647Z,17.80
2023-04-19T12:10:35.914Z,18.20
2023-04-19T12:13:17.675Z,18.20
2023-04-19T12:15:46.538Z,18.30
2023-04-19T12:18:14.502Z,18.30
2023-04-19T12:20:46.202Z,18.50
2023-04-19T12:23:15.974Z,18.70
2023-04-19T12:25:46.077Z,18.70
2023-04-19T12:28:14.762Z,18.70
2023-04-19T12:30:43.248Z,18.90
2023-04-19T12:33:12.138Z,19.20
2023-04-19T12:35:40.916Z,19.30
2023-04-19T12:38:09.478Z,18.80
2023-04-19T12:40:38.656Z,18.80
2023-04-19T12:43:08.573Z,18.90
2023-04-19T12:45:36.635Z,18.90
2023-04-19T12:48:04.708Z,18.90
2023-04-19T12:50:32.694Z,18.70
2023-04-19T12:53:00.475Z,18.90
2023-04-19T12:55:28.457Z,18.90
2023-04-19T12:57:57.613Z,19.10
2023-04-19T13:00:25.913Z,19.00
2023-04-19T13:02:54.063Z,19.30
2023-04-19T13:05:21.975Z,19.60
2023-04-19T13:07:49.854Z,19.40
2023-04-19T13:10:17.750Z,19.40
2023-04-19T13:12:45.578Z,19.10
2023-04-19T13:15:14.795Z,19.10
2023-04-19T13:17:42.648Z,18.90
2023-04-19T13:20:11.151Z,18.80
2023-04-19T13:22:39.022Z,19.30
2023-04-19T13:25:07.782Z,19.70
2023-04-19T13:27:35.684Z,19.90
2023-04-19T13:30:03.803Z,19.80
2023-04-19T13:32:33.007Z,19.30
2023-04-19T13:35:01.068Z,19.40
2023-04-19T13:37:29.128Z,19.20
2023-04-19T13:40:10.586Z,18.80
2023-04-19T13:42:43.058Z,18.80
2023-04-19T13:45:11.552Z,19.00
2023-04-19T13:47:40.725Z,18.90
2023-04-19T13:50:09.426Z,18.80
2023-04-19T13:52:37.310Z,18.70
2023-04-19T13:55:05.753Z,19.00
2023-04-19T13:57:33.580Z,19.10
2023-04-19T14:00:01.413Z,19.10
2023-04-19T14:02:29.804Z,19.00
2023-04-19T14:04:59.545Z,18.80
2023-04-19T14:07:27.426Z,18.70
2023-04-19T14:10:00.805Z,18.60
2023-04-19T14:12:28.646Z,18.50
2023-04-19T14:14:56.461Z,18.70
2023-04-19T14:17:24.264Z,19.10
2023-04-19T14:19:52.088Z,18.90
2023-04-19T14:22:21.279Z,18.70
2023-04-19T14:24:49.092Z,18.70
2023-04-19T14:27:16.996Z,18.70
2023-04-19T14:29:44.789Z,18.70
2023-04-19T14:32:25.059Z,19.00
2023-04-19T14:34:54.747Z,18.90
2023-04-19T14:37:24.914Z,18.70
2023-04-19T14:39:53.256Z,18.80
2023-04-19T14:42:22.795Z,19.00
2023-04-19T14:44:52.350Z,18.70
2023-04-19T14:47:20.606Z,18.70
2023-04-19T14:49:48.414Z,18.90
2023-04-19T14:52:16.809Z,18.80
2023-04-19T14:54:46.081Z,18.90
2023-04-19T14:57:14.214Z,18.60
2023-04-19T14:59:42.012Z,18.70
2023-04-19T15:02:10.700Z,18.70
2023-04-19T15:04:41.003Z,18.40
2023-04-19T15:07:09.277Z,18.20
2023-04-19T15:09:37.086Z,17.90
2023-04-19T15:12:06.781Z,17.80
2023-04-19T15:14:34.765Z,17.80
2023-04-19T15:17:03.053Z,17.80
2023-04-19T15:19:31.414Z,18.10
2023-04-19T15:21:59.201Z,18.30
2023-04-19T15:24:27.029Z,18.30
2023-04-19T15:26:54.856Z,18.20
2023-04-19T15:29:23.984Z,18.20
2023-04-19T15:31:54.122Z,18.10
2023-04-19T15:34:21.973Z,17.60
2023-04-19T15:36:49.760Z,17.60
2023-04-19T15:39:18.017Z,17.40
2023-04-19T15:41:45.943Z,16.90
2023-04-19T15:44:13.998Z,16.30
2023-04-19T15:46:43.336Z,15.90
2023-04-19T15:49:11.218Z,16.00
2023-04-19T15:51:39.277Z,16.00
2023-04-19T15:54:07.225Z,16.40
2023-04-19T15:56:35.113Z,16.50
2023-04-19T15:59:02.936Z,16.50
2023-04-19T16:01:30.827Z,16.30
2023-04-19T16:04:00.144Z,15.80
2023-04-19T16:06:28.421Z,15.50
2023-04-19T16:08:56.253Z,15.30
2023-04-19T16:11:24.287Z,15.20
2023-04-19T16:13:52.183Z,15.20
2023-04-19T16:16:20.096Z,15.30
2023-04-19T16:18:48.102Z,15.10
2023-04-19T16:21:17.213Z,14.90
2023-04-19T16:23:44.985Z,14.70
2023-04-19T16:26:12.791Z,14.70
2023-04-19T16:28:40.600Z,14.60
2023-04-19T16:31:08.475Z,14.40
2023-04-19T16:33:36.292Z,14.30
2023-04-19T16:36:04.157Z,14.30
2023-04-19T16:38:33.287Z,14.20
2023-04-19T16:41:03.114Z,14.20
2023-04-19T16:43:30.878Z,14.10
2023-04-19T16:45:58.786Z,14.00
2023-04-19T16:48:27.643Z,13.90
2023-04-19T16:50:55.484Z,13.70
2023-04-19T16:53:23.504Z,13.70
2023-04-19T16:55:54.512Z,13.50
2023-04-19T16:58:24.201Z,13.40
2023-04-19T17:00:52.134Z,13.40
2023-04-19T17:03:20.258Z,13.30
2023-04-19T17:05:48.235Z,13.30
2023-04-19T17:08:16.042Z,13.30
2023-04-19T17:10:43.817Z,13.30
2023-04-19T17:13:12.963Z,13.20
2023-04-19T17:15:40.943Z,13.20
2023-04-19T17:18:09.869Z,13.20
2023-04-19T17:20:37.882Z,13.10
2023-04-19T17:23:05.679Z,13.10
2023-04-19T17:25:33.503Z,13.10
2023-04-19T17:28:01.398Z,13.10
2023-04-19T17:30:30.727Z,13.10
2023-04-19T17:32:58.582Z,13.10
2023-04-19T17:35:27.196Z,13.10
2023-04-19T17:37:55.048Z,13.00
2023-04-19T17:40:22.900Z,13.00
2023-04-19T17:42:50.761Z,12.90
2023-04-19T17:45:18.688Z,12.90
2023-04-19T17:47:47.884Z,12.80
2023-04-19T17:50:16.029Z,12.70
2023-04-19T17:52:43.868Z,12.70
2023-04-19T17:55:11.775Z,12.60
2023-04-19T17:57:40.242Z,12.50
2023-04-19T18:00:11.052Z,12.50
2023-04-19T18:02:40.140Z,12.40
2023-04-19T18:05:10.230Z,12.30
2023-04-19T18:07:38.057Z,12.20
2023-04-19T18:10:06.829Z,12.20
2023-04-19T18:12:34.690Z,12.10
2023-04-19T18:15:02.570Z,12.00
2023-04-19T18:17:31.058Z,11.90
2023-04-19T18:19:58.990Z,11.80
2023-04-19T18:22:28.204Z,11.80
2023-04-19T18:24:56.012Z,11.80
2023-04-19T18:27:23.880Z,11.70
2023-04-19T18:29:52.301Z,11.60
2023-04-19T18:32:21.698Z,11.50
2023-04-19T18:34:49.702Z,11.40
2023-04-19T18:37:18.042Z,11.40
2023-04-19T18:39:47.188Z,11.40
2023-04-19T18:42:15.170Z,11.30
2023-04-19T18:44:53.581Z,11.30
2023-04-19T18:47:22.377Z,11.20
2023-04-19T18:50:03.677Z,11.10
2023-04-19T18:52:32.857Z,11.10
2023-04-19T18:55:02.020Z,11.00
2023-04-19T18:57:34.223Z,11.00
2023-04-19T19:00:05.477Z,11.00
2023-04-19T19:02:36.072Z,10.90
2023-04-19T19:05:07.421Z,10.90
2023-04-19T19:07:37.833Z,10.80
2023-04-19T19:12:40.705Z,10.70
2023-04-19T19:15:09.672Z,10.60
2023-04-19T19:17:38.078Z,10.60
2023-04-19T19:20:07.511Z,10.60
2023-04-19T19:22:35.527Z,10.50
2023-04-19T19:25:03.376Z,10.50
2023-04-19T19:27:32.674Z,10.50
2023-04-19T19:30:00.525Z,10.50
2023-04-19T19:32:28.640Z,10.50
2023-04-19T19:35:01.769Z,10.50
2023-04-19T19:37:31.716Z,10.40
2023-04-19T19:40:04.071Z,10.40
2023-04-19T19:42:35.453Z,10.40
2023-04-19T19:45:04.081Z,10.30
2023-04-19T19:47:35.210Z,10.10
2023-04-19T19:50:50.889Z,10.00
2023-04-19T19:52:53.137Z,10.00
2023-04-19T19:55:20.995Z,9.90
2023-04-19T20:00:43.980Z,9.80
2023-04-19T20:03:10.766Z,9.80
2023-04-19T20:08:10.153Z,9.80
2023-04-19T20:10:39.351Z,9.80
2023-04-19T20:13:08.532Z,9.70
2023-04-19T20:15:38.189Z,9.70
2023-04-19T20:18:08.070Z,9.80
2023-04-19T20:20:37.295Z,9.90
2023-04-19T20:23:05.645Z,10.00
2023-04-19T20:25:33.550Z,9.90
2023-04-19T20:28:01.905Z,9.90
2023-04-19T20:30:31.191Z,9.80
2023-04-19T20:32:59.165Z,9.70
2023-04-19T20:35:27.158Z,9.70
2023-04-19T20:38:01.999Z,9.70
2023-04-19T20:40:31.793Z,9.80
2023-04-19T20:42:59.629Z,10.00
2023-04-19T20:45:28.226Z,10.00
2023-04-19T20:47:58.537Z,9.90
2023-04-19T20:50:26.574Z,9.90
2023-04-19T20:52:54.419Z,9.90
2023-04-19T20:55:22.228Z,10.00
2023-04-19T20:57:50.058Z,10.00
2023-04-19T21:00:18.430Z,10.00
2023-04-19T21:02:46.373Z,10.10
2023-04-19T21:05:15.712Z,10.20
2023-04-19T21:07:43.611Z,10.20
2023-04-19T21:10:13.557Z,10.30
2023-04-19T21:12:41.358Z,10.30
2023-04-19T21:15:09.802Z,10.30
2023-04-19T21:17:37.706Z,10.20
2023-04-19T21:20:11.895Z,10.30
2023-04-19T21:22:42.187Z,10.20
2023-04-19T21:25:11.187Z,10.20
2023-04-19T21:27:39.529Z,10.30
2023-04-19T21:30:09.102Z,10.30
2023-04-19T21:32:36.970Z,10.30
2023-04-19T21:35:05.305Z,10.30
2023-04-19T21:37:33.156Z,10.30
2023-04-19T21:40:02.373Z,10.30
2023-04-19T21:42:30.981Z,10.30
2023-04-19T21:44:58.958Z,10.30
2023-04-19T21:47:27.590Z,10.20
2023-04-19T21:49:55.720Z,10.20
2023-04-19T21:52:23.627Z,10.30
2023-04-19T21:54:51.452Z,10.30
2023-04-19T21:57:21.983Z,10.30
2023-04-19T21:59:49.943Z,10.20
2023-04-19T22:02:17.984Z,10.20
2023-04-19T22:04:46.035Z,10.10
2023-04-19T22:07:13.937Z,10.10
2023-04-19T22:09:42.072Z,10.00
2023-04-19T22:12:11.554Z,9.80
2023-04-19T22:14:40.782Z,9.70
2023-04-19T22:17:08.983Z,9.80
2023-04-19T22:19:37.946Z,9.70
2023-04-19T22:22:05.798Z,9.70
2023-04-19T22:24:35.786Z,9.70
2023-04-19T22:27:05.396Z,9.60
2023-04-19T22:29:34.310Z,9.70
2023-04-19T22:32:03.628Z,9.70
2023-04-19T22:34:31.763Z,9.80
2023-04-19T22:36:59.628Z,9.80
2023-04-19T22:39:27.457Z,9.80
2023-04-19T22:41:55.310Z,9.80
2023-04-19T22:44:23.205Z,9.60
2023-04-19T22:46:51.674Z,9.50
2023-04-19T22:49:22.052Z,9.40
2023-04-19T22:51:50.610Z,9.30
2023-04-19T22:54:18.483Z,9.30
2023-04-19T22:56:46.318Z,9.40
2023-04-19T22:59:14.677Z,9.50
2023-04-19T23:01:42.880Z,9.60
2023-04-19T23:04:14.694Z,9.50
2023-04-19T23:06:45.347Z,9.60
2023-04-19T23:09:13.928Z,9.60
2023-04-19T23:11:42.331Z,9.70
2023-04-19T23:14:10.420Z,9.70
2023-04-19T23:16:39.241Z,9.60
2023-04-19T23:19:07.535Z,9.60
2023-04-19T23:21:35.995Z,9.60
2023-04-19T23:24:05.685Z,9.60
2023-04-19T23:26:33.567Z,9.50
2023-04-19T23:29:01.400Z,9.30
2023-04-19T23:31:29.286Z,9.20
2023-04-19T23:33:57.170Z,9.10
2023-04-19T23:36:25.055Z,9.10
2023-04-19T23:38:52.894Z,8.90
2023-04-19T23:41:22.080Z,8.90
2023-04-19T23:43:51.593Z,8.70
2023-04-19T23:46:19.539Z,8.60
2023-04-19T23:48:47.381Z,8.70
2023-04-19T23:51:15.239Z,8.60
2023-04-19T23:53:43.055Z,8.60
2023-04-19T23:56:11.076Z,8.60
2023-04-19T23:58:40.281Z,8.60
